x

Passage Island, Mi (pilm4) Weather Station

12:00pm - Mon 8th Feb 2016 All times are CST. -6 hours from GMT.

  • Wind
    22mph, 30mph gusts
  • Air Temp 6°f
  • Sea Pressure 1011.2mb
  • Passage Island, Mi
  • Passage Island, Mi

More Historic Weather Station data

Upgrade to MSW Pro to gain access to the past 30 days of data for over 8000 Wavebouys and Weather Stations around the globe.

Join Pro

Comparision Forecast

View Surf forecast
   
Mon 02/08 12:00pm 22 30 mph 1011.2mb 6f
11:00am 21 28 mph 1011.4mb 6f
10:00am 17 28 mph 1011.2mb 6f
9:00am 16 25 mph 1010.6mb 6f
8:00am 21 30 mph 1010.2mb 7f
7:00am 21 28 mph 1009.6mb 8f
6:00am 18 28 mph 1008.8mb 9f
5:00am 13 23 mph 1008.2mb 11f
4:00am 16 28 mph 1007.7mb 11f
3:00am 17 26 mph 1007.2mb 12f
2:00am 16 24 mph 1006.8mb 14f
1:00am 16 24 mph 1006.4mb 15f
12:00am 17 25 mph 1006.4mb 16f
Sun 02/07 11:00pm 16 25 mph 1006.2mb 17f
10:00pm 15 22 mph 1005.8mb 20f
9:00pm 14 18 mph 1005.6mb 20f
8:00pm 17 22 mph 1005.3mb 21f
7:00pm 16 24 mph 1005.1mb 22f
6:00pm 20 25 mph 1004.9mb 23f
5:00pm 24 30 mph 1004.1mb 24f
4:00pm 24 30 mph 1003.2mb 26f
3:00pm 28 31 mph 1002.6mb 26f
2:00pm 29 31 mph 1001.8mb 27f
1:00pm 28 31 mph 1001.9mb 29f
12:00pm 29 32 mph 1002mb 29f
11:00am 8 9 mph 1002.5mb 33f
10:00am 7
mph
1002.6mb 33f
9:00am 9 10 mph 1002.6mb 33f
8:00am 11 13 mph 1002.9mb 33f
7:00am 13 15 mph 1003.4mb 33f
6:00am 16 18 mph 1003.9mb 33f
5:00am 13 14 mph 1004mb 33f
4:00am 16 18 mph 1004.8mb 33f
3:00am 17 20 mph 1005.6mb 32f
2:00am 20 23 mph 1006.8mb 32f
1:00am 21 22 mph 1007.7mb 32f
12:00am 22 23 mph 1009.1mb 31f
Sat 02/06 11:00pm 25 28 mph 1010.3mb 31f
10:00pm 30 33 mph 1011.4mb 31f
9:00pm 28 30 mph 1012.6mb 29f
8:00pm 25 29 mph 1013.9mb 28f
7:00pm 24 26 mph 1014.9mb 27f
6:00pm 20 22 mph 1015.5mb 26f
5:00pm 16 18 mph 1016.3mb 25f
4:00pm 13 14 mph 1016.6mb 24f
3:00pm 9 10 mph 1017mb 23f
2:00pm 7 8 mph 1017.3mb 23f
1:00pm 2 5 mph 1018.1mb 22f
12:00pm 1 2 mph 1018.6mb 23f
11:00am 3 5 mph 1019.2mb 23f
10:00am 5 7 mph 1019.2mb 22f
9:00am 8 10 mph 1019.3mb 22f
8:00am 13 15 mph 1019.3mb 23f
7:00am 15 16 mph 1018.9mb 23f
6:00am 18 20 mph 1018.6mb 23f
5:00am 16 18 mph 1018.7mb 23f
4:00am 21 23 mph 1018.5mb 24f
3:00am 20 23 mph 1018.4mb 24f
2:00am 24 26 mph 1018.4mb 25f
1:00am 29 32 mph 1018mb 26f
12:00am 23 24 mph 1018.3mb 26f
Fri 02/05 11:00pm 26 31 mph 1018.6mb 26f
10:00pm 30 32 mph 1018.9mb 28f
9:00pm 20 23 mph 1020.1mb 26f
8:00pm 20 21 mph 1021mb 25f
7:00pm 20 22 mph 1022.1mb 24f
6:00pm 18 21 mph 1022.7mb 25f
5:00pm 17 18 mph 1023.6mb 24f
4:00pm 20 23 mph 1024.4mb 24f
3:00pm 15 16 mph 1025.2mb 23f
2:00pm 10 11 mph 1025.7mb 22f
1:00pm 10 13 mph 1026.5mb 20f
12:00pm 13 15 mph 1027mb 19f
11:00am 16 17 mph 1027.6mb 19f
10:00am 7 9 mph 1028.2mb 19f
9:00am 7 9 mph 1028.1mb 18f
8:00am 6 9 mph 1027.8mb 18f
7:00am 10 13 mph 1027.6mb 17f
6:00am 11 15 mph 1026.8mb 17f
5:00am 15 18 mph 1026.1mb 17f
4:00am 16 24 mph 1025.8mb 17f
3:00am 17 22 mph 1025mb 19f
2:00am 20 22 mph 1024.6mb 19f
1:00am 16 21 mph 1023.9mb 20f
12:00am 20 22 mph 1023.2mb 20f
Thu 02/04 11:00pm 25 29 mph 1021.9mb 20f
10:00pm 23 26 mph 1021.8mb 20f
9:00pm 22 24 mph 1021.1mb 22f
8:00pm 16 18 mph 1021.1mb 24f